Main page


Airports :

Ljubljana, Slovenia

Ljubljana Jože Pučnik Airport

latitude: 46-13N, longitude: 014-29E, elevation: 385 m

Current weather observation

The report was made 11 minutes ago, at 06:00 UTC
Wind 4 kt from the Southeast
Temperature -2°C
Humidity 80%
Pressure 1007 hPa
Visibility 10 km or more
Broken clouds at a height of 2700 ft
Overcast at a height of 4200 ft

METAR: LJLJ 200600Z 13004KT 9999 BKN027 OVC042 M02/M05 Q1007 R30/CLRD// NOSIG

Time: 07:11 (06:11 UTC)


The report was made 1 hour and 11 minutes ago, at 05:00 UTC
Forecast valid from 20 at 06 UTC to 21 at 06 UTC
Wind 2 kt from variable directions
Visibility 10 km or more
Overcast at a height of 2500 ft
from 20 at 10 UTC to 20 at 18 UTC
Wind 5 kt from the East/Southeast
from 20 at 21 UTC to 20 at 24 UTC
Scattered clouds at a height of 3000 ft

TAF: LJLJ 200500Z 2006/2106 VRB02KT 9999 OVC025 TEMPO 2010/2018 12005KT BECMG 2021/2024 SCT030

Weather observations and forecasts of more than 4000 airports (METAR and TAF reports).

The available stations are represented by yellow and red dots on the map.

Hover mouse over dot to see the name of the station.

Then click to see weather observations and forecasts.

To change the map : click on the green buttons with a black cross to zoom in, on the green button with a dash to zoom out, or on the green arrows for adjacent maps.